sensor_id;sensor_type;location;lat;lon;timestamp;P1;durP1;ratioP1;P2;durP2;ratioP2
77573;SDS011;66710;48.868;9.080;2023-06-22T00:01:08;10.90;;;7.65;;
77573;SDS011;66710;48.868;9.080;2023-06-22T00:03:34;9.73;;;7.40;;
77573;SDS011;66710;48.868;9.080;2023-06-22T00:05:59;12.75;;;7.70;;
77573;SDS011;66710;48.868;9.080;2023-06-22T00:08:24;11.50;;;7.93;;
77573;SDS011;66710;48.868;9.080;2023-06-22T00:10:50;12.52;;;8.32;;
77573;SDS011;66710;48.868;9.080;2023-06-22T00:13:16;13.18;;;8.40;;
77573;SDS011;66710;48.868;9.080;2023-06-22T00:15:43;13.73;;;8.48;;
77573;SDS011;66710;48.868;9.080;2023-06-22T00:18:09;14.68;;;8.45;;
77573;SDS011;66710;48.868;9.080;2023-06-22T00:20:36;11.40;;;8.15;;
77573;SDS011;66710;48.868;9.080;2023-06-22T00:23:02;10.65;;;8.40;;
77573;SDS011;66710;48.868;9.080;2023-06-22T00:25:39;11.02;;;8.18;;
77573;SDS011;66710;48.868;9.080;2023-06-22T00:28:05;14.15;;;9.57;;
77573;SDS011;66710;48.868;9.080;2023-06-22T00:30:32;11.45;;;8.68;;
77573;SDS011;66710;48.868;9.080;2023-06-22T00:32:58;13.43;;;9.07;;
77573;SDS011;66710;48.868;9.080;2023-06-22T00:35:24;10.85;;;8.45;;
77573;SDS011;66710;48.868;9.080;2023-06-22T00:37:57;11.80;;;9.10;;
77573;SDS011;66710;48.868;9.080;2023-06-22T00:40:26;11.45;;;8.93;;
77573;SDS011;66710;48.868;9.080;2023-06-22T00:42:52;13.25;;;8.80;;
77573;SDS011;66710;48.868;9.080;2023-06-22T00:45:17;11.30;;;8.60;;
77573;SDS011;66710;48.868;9.080;2023-06-22T00:47:43;12.15;;;8.63;;
77573;SDS011;66710;48.868;9.080;2023-06-22T00:50:09;12.27;;;8.98;;
77573;SDS011;66710;48.868;9.080;2023-06-22T00:52:43;14.85;;;9.25;;
77573;SDS011;66710;48.868;9.080;2023-06-22T00:55:11;14.18;;;9.23;;
77573;SDS011;66710;48.868;9.080;2023-06-22T00:57:37;10.98;;;8.48;;
77573;SDS011;66710;48.868;9.080;2023-06-22T01:00:02;10.00;;;7.70;;
77573;SDS011;66710;48.868;9.080;2023-06-22T01:02:31;11.75;;;8.05;;
77573;SDS011;66710;48.868;9.080;2023-06-22T01:04:57;14.73;;;10.32;;
77573;SDS011;66710;48.868;9.080;2023-06-22T01:07:27;11.90;;;8.80;;
77573;SDS011;66710;48.868;9.080;2023-06-22T01:12:42;12.48;;;8.75;;
77573;SDS011;66710;48.868;9.080;2023-06-22T01:15:23;11.57;;;9.05;;
77573;SDS011;66710;48.868;9.080;2023-06-22T01:17:53;12.35;;;9.07;;
77573;SDS011;66710;48.868;9.080;2023-06-22T01:20:21;12.73;;;9.05;;
77573;SDS011;66710;48.868;9.080;2023-06-22T01:22:59;14.90;;;9.20;;
77573;SDS011;66710;48.868;9.080;2023-06-22T01:25:34;13.20;;;9.40;;
77573;SDS011;66710;48.868;9.080;2023-06-22T01:28:12;12.20;;;8.85;;
77573;SDS011;66710;48.868;9.080;2023-06-22T01:30:47;12.07;;;8.32;;
77573;SDS011;66710;48.868;9.080;2023-06-22T01:33:14;12.45;;;9.23;;
77573;SDS011;66710;48.868;9.080;2023-06-22T01:35:41;10.77;;;8.95;;
77573;SDS011;66710;48.868;9.080;2023-06-22T01:38:08;12.95;;;8.50;;
77573;SDS011;66710;48.868;9.080;2023-06-22T01:40:34;11.98;;;8.68;;
77573;SDS011;66710;48.868;9.080;2023-06-22T01:43:01;11.05;;;8.70;;
77573;SDS011;66710;48.868;9.080;2023-06-22T01:45:28;13.00;;;8.50;;
77573;SDS011;66710;48.868;9.080;2023-06-22T01:47:53;11.85;;;8.95;;
77573;SDS011;66710;48.868;9.080;2023-06-22T01:50:19;12.45;;;9.35;;
77573;SDS011;66710;48.868;9.080;2023-06-22T01:52:45;12.77;;;9.10;;
77573;SDS011;66710;48.868;9.080;2023-06-22T01:55:11;11.38;;;8.30;;
77573;SDS011;66710;48.868;9.080;2023-06-22T01:57:36;12.13;;;8.27;;
77573;SDS011;66710;48.868;9.080;2023-06-22T02:00:04;13.27;;;8.55;;
77573;SDS011;66710;48.868;9.080;2023-06-22T02:03:34;12.50;;;8.60;;
77573;SDS011;66710;48.868;9.080;2023-06-22T02:05:46;12.13;;;8.32;;
77573;SDS011;66710;48.868;9.080;2023-06-22T02:08:19;12.13;;;7.88;;
77573;SDS011;66710;48.868;9.080;2023-06-22T02:10:46;12.27;;;8.63;;
77573;SDS011;66710;48.868;9.080;2023-06-22T02:13:14;12.82;;;8.57;;
77573;SDS011;66710;48.868;9.080;2023-06-22T02:15:40;13.15;;;9.02;;
77573;SDS011;66710;48.868;9.080;2023-06-22T02:18:06;13.25;;;9.45;;
77573;SDS011;66710;48.868;9.080;2023-06-22T02:20:32;10.23;;;8.32;;
77573;SDS011;66710;48.868;9.080;2023-06-22T02:22:57;12.63;;;8.13;;
77573;SDS011;66710;48.868;9.080;2023-06-22T02:25:23;10.63;;;8.40;;
77573;SDS011;66710;48.868;9.080;2023-06-22T02:27:48;14.30;;;8.48;;
77573;SDS011;66710;48.868;9.080;2023-06-22T02:30:14;13.38;;;8.43;;
77573;SDS011;66710;48.868;9.080;2023-06-22T02:32:41;12.80;;;8.40;;
77573;SDS011;66710;48.868;9.080;2023-06-22T02:35:07;11.68;;;8.13;;
77573;SDS011;66710;48.868;9.080;2023-06-22T02:37:35;11.20;;;8.77;;
77573;SDS011;66710;48.868;9.080;2023-06-22T02:40:03;13.00;;;8.75;;
77573;SDS011;66710;48.868;9.080;2023-06-22T02:42:31;10.85;;;8.00;;
77573;SDS011;66710;48.868;9.080;2023-06-22T02:44:57;12.40;;;8.20;;
77573;SDS011;66710;48.868;9.080;2023-06-22T02:47:22;13.90;;;9.25;;
77573;SDS011;66710;48.868;9.080;2023-06-22T02:49:47;11.00;;;7.95;;
77573;SDS011;66710;48.868;9.080;2023-06-22T02:52:13;13.23;;;8.23;;
77573;SDS011;66710;48.868;9.080;2023-06-22T02:54:38;14.07;;;8.80;;
77573;SDS011;66710;48.868;9.080;2023-06-22T02:57:04;12.85;;;8.60;;
77573;SDS011;66710;48.868;9.080;2023-06-22T02:59:30;12.88;;;9.07;;
77573;SDS011;66710;48.868;9.080;2023-06-22T03:01:55;12.85;;;8.65;;
77573;SDS011;66710;48.868;9.080;2023-06-22T03:04:20;14.50;;;8.75;;
77573;SDS011;66710;48.868;9.080;2023-06-22T03:06:46;12.48;;;8.85;;
77573;SDS011;66710;48.868;9.080;2023-06-22T03:09:15;12.95;;;8.75;;
77573;SDS011;66710;48.868;9.080;2023-06-22T03:11:41;12.68;;;8.48;;
77573;SDS011;66710;48.868;9.080;2023-06-22T03:14:07;12.02;;;8.60;;
77573;SDS011;66710;48.868;9.080;2023-06-22T03:16:32;14.32;;;9.07;;
77573;SDS011;66710;48.868;9.080;2023-06-22T03:18:58;12.90;;;8.55;;
77573;SDS011;66710;48.868;9.080;2023-06-22T03:21:26;12.75;;;8.50;;
77573;SDS011;66710;48.868;9.080;2023-06-22T03:23:52;12.43;;;8.75;;
77573;SDS011;66710;48.868;9.080;2023-06-22T03:26:18;12.95;;;9.02;;
77573;SDS011;66710;48.868;9.080;2023-06-22T03:28:44;14.15;;;9.15;;
77573;SDS011;66710;48.868;9.080;2023-06-22T03:31:10;15.00;;;9.10;;
77573;SDS011;66710;48.868;9.080;2023-06-22T03:33:35;10.90;;;8.43;;
77573;SDS011;66710;48.868;9.080;2023-06-22T03:36:00;11.60;;;8.23;;
77573;SDS011;66710;48.868;9.080;2023-06-22T03:38:26;14.48;;;8.60;;
77573;SDS011;66710;48.868;9.080;2023-06-22T03:40:51;13.77;;;8.50;;
77573;SDS011;66710;48.868;9.080;2023-06-22T03:43:17;14.63;;;8.98;;
77573;SDS011;66710;48.868;9.080;2023-06-22T03:45:42;14.13;;;9.48;;
77573;SDS011;66710;48.868;9.080;2023-06-22T03:48:10;14.73;;;9.23;;
77573;SDS011;66710;48.868;9.080;2023-06-22T03:50:35;16.60;;;9.10;;
77573;SDS011;66710;48.868;9.080;2023-06-22T03:53:01;12.40;;;8.65;;
77573;SDS011;66710;48.868;9.080;2023-06-22T03:55:26;15.32;;;9.35;;
77573;SDS011;66710;48.868;9.080;2023-06-22T03:57:52;16.77;;;9.40;;
77573;SDS011;66710;48.868;9.080;2023-06-22T04:00:19;13.10;;;8.88;;
77573;SDS011;66710;48.868;9.080;2023-06-22T04:02:44;12.45;;;8.38;;
77573;SDS011;66710;48.868;9.080;2023-06-22T04:05:10;13.95;;;8.88;;
77573;SDS011;66710;48.868;9.080;2023-06-22T04:07:35;16.33;;;8.73;;
77573;SDS011;66710;48.868;9.080;2023-06-22T04:10:02;14.30;;;8.95;;
77573;SDS011;66710;48.868;9.080;2023-06-22T04:12:30;11.20;;;8.55;;
77573;SDS011;66710;48.868;9.080;2023-06-22T04:14:55;13.07;;;8.57;;
77573;SDS011;66710;48.868;9.080;2023-06-22T04:17:21;12.48;;;8.38;;
77573;SDS011;66710;48.868;9.080;2023-06-22T04:19:49;14.18;;;8.75;;
77573;SDS011;66710;48.868;9.080;2023-06-22T04:22:15;14.25;;;8.85;;
77573;SDS011;66710;48.868;9.080;2023-06-22T04:24:40;11.80;;;8.55;;
77573;SDS011;66710;48.868;9.080;2023-06-22T04:27:05;12.50;;;8.57;;
77573;SDS011;66710;48.868;9.080;2023-06-22T04:29:31;12.60;;;9.02;;
77573;SDS011;66710;48.868;9.080;2023-06-22T04:31:56;12.85;;;9.02;;
77573;SDS011;66710;48.868;9.080;2023-06-22T04:34:28;15.85;;;9.65;;
77573;SDS011;66710;48.868;9.080;2023-06-22T04:36:54;15.20;;;9.38;;
77573;SDS011;66710;48.868;9.080;2023-06-22T04:39:19;14.15;;;9.02;;
77573;SDS011;66710;48.868;9.080;2023-06-22T04:41:45;13.27;;;9.10;;
77573;SDS011;66710;48.868;9.080;2023-06-22T04:46:49;15.70;;;9.52;;
77573;SDS011;66710;48.868;9.080;2023-06-22T04:49:19;12.98;;;9.85;;
77573;SDS011;66710;48.868;9.080;2023-06-22T04:51:47;12.63;;;9.30;;
77573;SDS011;66710;48.868;9.080;2023-06-22T04:54:12;15.35;;;10.35;;
77573;SDS011;66710;48.868;9.080;2023-06-22T04:56:38;14.75;;;9.45;;
77573;SDS011;66710;48.868;9.080;2023-06-22T04:59:05;14.23;;;10.27;;
77573;SDS011;66710;48.868;9.080;2023-06-22T05:01:31;13.15;;;9.52;;
77573;SDS011;66710;48.868;9.080;2023-06-22T05:03:57;12.43;;;9.32;;
77573;SDS011;66710;48.868;9.080;2023-06-22T05:06:25;14.98;;;10.25;;
77573;SDS011;66710;48.868;9.080;2023-06-22T05:08:54;13.88;;;9.20;;
77573;SDS011;66710;48.868;9.080;2023-06-22T05:11:27;15.90;;;10.00;;
77573;SDS011;66710;48.868;9.080;2023-06-22T05:13:53;13.98;;;9.88;;
77573;SDS011;66710;48.868;9.080;2023-06-22T05:16:19;13.02;;;9.65;;
77573;SDS011;66710;48.868;9.080;2023-06-22T05:18:51;14.60;;;10.18;;
77573;SDS011;66710;48.868;9.080;2023-06-22T05:21:21;13.15;;;9.30;;
77573;SDS011;66710;48.868;9.080;2023-06-22T05:23:50;14.18;;;8.90;;
77573;SDS011;66710;48.868;9.080;2023-06-22T05:26:16;13.93;;;9.30;;
77573;SDS011;66710;48.868;9.080;2023-06-22T05:28:41;14.60;;;9.02;;
77573;SDS011;66710;48.868;9.080;2023-06-22T05:31:06;12.70;;;9.52;;
77573;SDS011;66710;48.868;9.080;2023-06-22T05:33:31;12.93;;;8.70;;
77573;SDS011;66710;48.868;9.080;2023-06-22T05:35:57;12.80;;;9.05;;
77573;SDS011;66710;48.868;9.080;2023-06-22T05:38:22;12.52;;;9.10;;
77573;SDS011;66710;48.868;9.080;2023-06-22T05:40:47;11.65;;;8.98;;
77573;SDS011;66710;48.868;9.080;2023-06-22T05:43:12;14.52;;;9.27;;
77573;SDS011;66710;48.868;9.080;2023-06-22T05:45:38;13.02;;;9.13;;
77573;SDS011;66710;48.868;9.080;2023-06-22T05:48:03;12.40;;;8.45;;
77573;SDS011;66710;48.868;9.080;2023-06-22T05:50:29;11.80;;;8.88;;
77573;SDS011;66710;48.868;9.080;2023-06-22T05:52:54;12.40;;;8.77;;
77573;SDS011;66710;48.868;9.080;2023-06-22T05:55:19;13.85;;;9.07;;
77573;SDS011;66710;48.868;9.080;2023-06-22T05:57:44;12.73;;;8.75;;
77573;SDS011;66710;48.868;9.080;2023-06-22T06:00:10;13.13;;;9.25;;
77573;SDS011;66710;48.868;9.080;2023-06-22T06:02:36;11.43;;;8.50;;
77573;SDS011;66710;48.868;9.080;2023-06-22T06:05:02;11.48;;;8.57;;
77573;SDS011;66710;48.868;9.080;2023-06-22T06:07:28;12.82;;;8.05;;
77573;SDS011;66710;48.868;9.080;2023-06-22T06:09:54;13.65;;;8.50;;
77573;SDS011;66710;48.868;9.080;2023-06-22T06:12:19;11.85;;;8.20;;
77573;SDS011;66710;48.868;9.080;2023-06-22T06:14:44;15.68;;;8.85;;
77573;SDS011;66710;48.868;9.080;2023-06-22T06:17:10;12.00;;;8.32;;
77573;SDS011;66710;48.868;9.080;2023-06-22T06:19:35;15.45;;;8.73;;
77573;SDS011;66710;48.868;9.080;2023-06-22T06:22:00;12.70;;;8.85;;
77573;SDS011;66710;48.868;9.080;2023-06-22T06:24:26;10.82;;;8.13;;
77573;SDS011;66710;48.868;9.080;2023-06-22T06:26:52;11.15;;;8.63;;
77573;SDS011;66710;48.868;9.080;2023-06-22T06:29:17;11.18;;;8.45;;
77573;SDS011;66710;48.868;9.080;2023-06-22T06:31:42;13.80;;;8.70;;
77573;SDS011;66710;48.868;9.080;2023-06-22T06:34:08;12.70;;;8.68;;
77573;SDS011;66710;48.868;9.080;2023-06-22T06:36:33;12.75;;;8.90;;
77573;SDS011;66710;48.868;9.080;2023-06-22T06:38:58;12.30;;;8.13;;
77573;SDS011;66710;48.868;9.080;2023-06-22T06:41:24;13.48;;;8.05;;
77573;SDS011;66710;48.868;9.080;2023-06-22T06:43:49;9.15;;;7.10;;
77573;SDS011;66710;48.868;9.080;2023-06-22T06:46:14;12.68;;;7.82;;
77573;SDS011;66710;48.868;9.080;2023-06-22T06:48:39;8.43;;;7.15;;
77573;SDS011;66710;48.868;9.080;2023-06-22T06:51:05;10.13;;;7.28;;
77573;SDS011;66710;48.868;9.080;2023-06-22T06:53:30;9.80;;;7.47;;
77573;SDS011;66710;48.868;9.080;2023-06-22T06:55:56;9.90;;;6.75;;
77573;SDS011;66710;48.868;9.080;2023-06-22T06:58:21;10.57;;;6.82;;
77573;SDS011;66710;48.868;9.080;2023-06-22T07:00:47;10.38;;;7.60;;
77573;SDS011;66710;48.868;9.080;2023-06-22T07:03:13;9.80;;;7.15;;
77573;SDS011;66710;48.868;9.080;2023-06-22T07:05:39;10.57;;;6.80;;
77573;SDS011;66710;48.868;9.080;2023-06-22T07:08:04;9.40;;;7.03;;
77573;SDS011;66710;48.868;9.080;2023-06-22T07:10:30;10.05;;;6.93;;
77573;SDS011;66710;48.868;9.080;2023-06-22T07:12:55;9.90;;;6.72;;
77573;SDS011;66710;48.868;9.080;2023-06-22T07:15:22;8.77;;;6.68;;
77573;SDS011;66710;48.868;9.080;2023-06-22T07:17:47;11.32;;;7.32;;
77573;SDS011;66710;48.868;9.080;2023-06-22T07:20:12;10.52;;;6.95;;
77573;SDS011;66710;48.868;9.080;2023-06-22T07:22:38;11.15;;;6.85;;
77573;SDS011;66710;48.868;9.080;2023-06-22T07:25:04;11.68;;;6.97;;
77573;SDS011;66710;48.868;9.080;2023-06-22T07:27:37;9.68;;;6.40;;
77573;SDS011;66710;48.868;9.080;2023-06-22T07:30:08;10.07;;;6.80;;
77573;SDS011;66710;48.868;9.080;2023-06-22T07:32:33;9.07;;;6.72;;
77573;SDS011;66710;48.868;9.080;2023-06-22T07:34:59;10.70;;;6.72;;
77573;SDS011;66710;48.868;9.080;2023-06-22T07:37:24;9.68;;;6.30;;
77573;SDS011;66710;48.868;9.080;2023-06-22T07:39:52;7.97;;;6.05;;
77573;SDS011;66710;48.868;9.080;2023-06-22T07:42:18;11.35;;;7.07;;
77573;SDS011;66710;48.868;9.080;2023-06-22T07:44:44;10.18;;;6.28;;
77573;SDS011;66710;48.868;9.080;2023-06-22T07:47:09;9.60;;;6.00;;
77573;SDS011;66710;48.868;9.080;2023-06-22T07:49:34;8.30;;;5.70;;
77573;SDS011;66710;48.868;9.080;2023-06-22T07:52:00;10.10;;;5.93;;
77573;SDS011;66710;48.868;9.080;2023-06-22T07:54:26;8.68;;;5.55;;
77573;SDS011;66710;48.868;9.080;2023-06-22T07:56:51;8.82;;;5.60;;
77573;SDS011;66710;48.868;9.080;2023-06-22T07:59:18;8.70;;;5.90;;
77573;SDS011;66710;48.868;9.080;2023-06-22T08:01:43;7.88;;;5.50;;
77573;SDS011;66710;48.868;9.080;2023-06-22T08:04:08;8.85;;;5.30;;
77573;SDS011;66710;48.868;9.080;2023-06-22T08:06:34;10.13;;;5.60;;
77573;SDS011;66710;48.868;9.080;2023-06-22T08:08:59;8.48;;;5.30;;
77573;SDS011;66710;48.868;9.080;2023-06-22T08:11:24;9.13;;;5.13;;
77573;SDS011;66710;48.868;9.080;2023-06-22T08:13:50;9.40;;;5.40;;
77573;SDS011;66710;48.868;9.080;2023-06-22T08:16:16;11.27;;;5.60;;
77573;SDS011;66710;48.868;9.080;2023-06-22T08:18:41;10.07;;;5.85;;
77573;SDS011;66710;48.868;9.080;2023-06-22T08:21:06;7.38;;;5.63;;
77573;SDS011;66710;48.868;9.080;2023-06-22T08:23:32;9.43;;;6.20;;
77573;SDS011;66710;48.868;9.080;2023-06-22T08:25:57;10.05;;;6.10;;
77573;SDS011;66710;48.868;9.080;2023-06-22T08:28:22;8.43;;;5.43;;
77573;SDS011;66710;48.868;9.080;2023-06-22T08:30:48;10.18;;;5.78;;
77573;SDS011;66710;48.868;9.080;2023-06-22T08:33:13;6.68;;;5.30;;
77573;SDS011;66710;48.868;9.080;2023-06-22T08:35:38;10.05;;;5.50;;
77573;SDS011;66710;48.868;9.080;2023-06-22T08:38:03;8.05;;;5.70;;
77573;SDS011;66710;48.868;9.080;2023-06-22T08:40:29;7.70;;;5.28;;
77573;SDS011;66710;48.868;9.080;2023-06-22T08:42:54;9.60;;;5.53;;
77573;SDS011;66710;48.868;9.080;2023-06-22T08:45:20;10.98;;;5.53;;
77573;SDS011;66710;48.868;9.080;2023-06-22T08:47:45;9.23;;;6.13;;
77573;SDS011;66710;48.868;9.080;2023-06-22T08:50:11;9.23;;;5.75;;
77573;SDS011;66710;48.868;9.080;2023-06-22T08:52:37;9.13;;;5.80;;
77573;SDS011;66710;48.868;9.080;2023-06-22T08:55:06;8.05;;;5.55;;
77573;SDS011;66710;48.868;9.080;2023-06-22T08:57:32;7.68;;;5.50;;
77573;SDS011;66710;48.868;9.080;2023-06-22T08:59:57;9.73;;;5.70;;
77573;SDS011;66710;48.868;9.080;2023-06-22T09:02:23;8.50;;;5.90;;
77573;SDS011;66710;48.868;9.080;2023-06-22T09:04:59;12.43;;;6.28;;
77573;SDS011;66710;48.868;9.080;2023-06-22T09:07:28;9.85;;;5.80;;
77573;SDS011;66710;48.868;9.080;2023-06-22T09:09:53;9.77;;;5.78;;
77573;SDS011;66710;48.868;9.080;2023-06-22T09:12:20;9.20;;;5.65;;
77573;SDS011;66710;48.868;9.080;2023-06-22T09:14:50;8.82;;;5.72;;
77573;SDS011;66710;48.868;9.080;2023-06-22T09:17:15;13.27;;;6.13;;
77573;SDS011;66710;48.868;9.080;2023-06-22T09:19:41;8.70;;;5.60;;
77573;SDS011;66710;48.868;9.080;2023-06-22T09:22:06;9.93;;;6.15;;
77573;SDS011;66710;48.868;9.080;2023-06-22T09:24:31;9.93;;;5.82;;
77573;SDS011;66710;48.868;9.080;2023-06-22T09:26:57;15.82;;;10.45;;
77573;SDS011;66710;48.868;9.080;2023-06-22T09:29:22;10.80;;;5.70;;
77573;SDS011;66710;48.868;9.080;2023-06-22T09:31:47;9.18;;;5.93;;
77573;SDS011;66710;48.868;9.080;2023-06-22T09:34:13;8.63;;;5.55;;
77573;SDS011;66710;48.868;9.080;2023-06-22T09:36:38;7.97;;;5.57;;
77573;SDS011;66710;48.868;9.080;2023-06-22T09:39:04;9.70;;;5.68;;
77573;SDS011;66710;48.868;9.080;2023-06-22T09:41:31;8.65;;;5.60;;
77573;SDS011;66710;48.868;9.080;2023-06-22T09:43:56;9.25;;;5.85;;
77573;SDS011;66710;48.868;9.080;2023-06-22T09:46:22;11.00;;;6.38;;
77573;SDS011;66710;48.868;9.080;2023-06-22T09:48:50;8.38;;;5.43;;
77573;SDS011;66710;48.868;9.080;2023-06-22T09:51:15;9.13;;;5.93;;
77573;SDS011;66710;48.868;9.080;2023-06-22T09:53:40;9.25;;;6.15;;
77573;SDS011;66710;48.868;9.080;2023-06-22T09:56:05;9.43;;;5.72;;
77573;SDS011;66710;48.868;9.080;2023-06-22T09:58:31;9.20;;;5.95;;
77573;SDS011;66710;48.868;9.080;2023-06-22T10:00:56;10.75;;;6.32;;
77573;SDS011;66710;48.868;9.080;2023-06-22T10:03:22;10.25;;;5.43;;
77573;SDS011;66710;48.868;9.080;2023-06-22T10:05:47;8.23;;;5.40;;
77573;SDS011;66710;48.868;9.080;2023-06-22T10:08:13;10.10;;;6.15;;
77573;SDS011;66710;48.868;9.080;2023-06-22T10:10:38;9.93;;;6.10;;
77573;SDS011;66710;48.868;9.080;2023-06-22T10:13:10;8.45;;;6.30;;
77573;SDS011;66710;48.868;9.080;2023-06-22T10:15:36;11.18;;;5.82;;
77573;SDS011;66710;48.868;9.080;2023-06-22T10:18:02;9.57;;;6.00;;
77573;SDS011;66710;48.868;9.080;2023-06-22T10:20:27;10.05;;;6.50;;
77573;SDS011;66710;48.868;9.080;2023-06-22T10:22:53;10.57;;;6.20;;
77573;SDS011;66710;48.868;9.080;2023-06-22T10:25:18;10.82;;;6.88;;
77573;SDS011;66710;48.868;9.080;2023-06-22T10:27:44;9.43;;;6.20;;
77573;SDS011;66710;48.868;9.080;2023-06-22T10:30:10;11.70;;;6.90;;
77573;SDS011;66710;48.868;9.080;2023-06-22T10:32:40;8.38;;;6.32;;
77573;SDS011;66710;48.868;9.080;2023-06-22T10:35:06;11.00;;;6.63;;
77573;SDS011;66710;48.868;9.080;2023-06-22T10:37:32;12.73;;;9.32;;
77573;SDS011;66710;48.868;9.080;2023-06-22T10:39:57;15.40;;;7.63;;
77573;SDS011;66710;48.868;9.080;2023-06-22T10:42:22;12.18;;;6.40;;
77573;SDS011;66710;48.868;9.080;2023-06-22T10:44:48;9.93;;;5.95;;
77573;SDS011;66710;48.868;9.080;2023-06-22T10:47:13;10.02;;;6.10;;
77573;SDS011;66710;48.868;9.080;2023-06-22T10:49:39;9.63;;;5.68;;
77573;SDS011;66710;48.868;9.080;2023-06-22T10:52:08;10.38;;;5.82;;
77573;SDS011;66710;48.868;9.080;2023-06-22T10:54:34;9.65;;;6.13;;
77573;SDS011;66710;48.868;9.080;2023-06-22T10:57:00;8.80;;;5.88;;
77573;SDS011;66710;48.868;9.080;2023-06-22T10:59:27;9.20;;;5.97;;
77573;SDS011;66710;48.868;9.080;2023-06-22T11:01:53;8.25;;;5.65;;
77573;SDS011;66710;48.868;9.080;2023-06-22T11:04:20;9.60;;;6.13;;
77573;SDS011;66710;48.868;9.080;2023-06-22T11:06:45;9.23;;;6.05;;
77573;SDS011;66710;48.868;9.080;2023-06-22T11:09:10;14.18;;;6.50;;
77573;SDS011;66710;48.868;9.080;2023-06-22T11:11:36;11.20;;;6.15;;
77573;SDS011;66710;48.868;9.080;2023-06-22T11:14:02;9.88;;;6.05;;
77573;SDS011;66710;48.868;9.080;2023-06-22T11:16:27;10.88;;;5.72;;
77573;SDS011;66710;48.868;9.080;2023-06-22T11:18:53;10.80;;;5.65;;
77573;SDS011;66710;48.868;9.080;2023-06-22T11:21:18;9.35;;;5.45;;
77573;SDS011;66710;48.868;9.080;2023-06-22T11:23:44;11.05;;;6.18;;
77573;SDS011;66710;48.868;9.080;2023-06-22T11:26:10;12.52;;;5.85;;
77573;SDS011;66710;48.868;9.080;2023-06-22T11:28:35;9.65;;;6.03;;
77573;SDS011;66710;48.868;9.080;2023-06-22T11:31:01;10.13;;;6.25;;
77573;SDS011;66710;48.868;9.080;2023-06-22T11:33:26;8.55;;;5.60;;
77573;SDS011;66710;48.868;9.080;2023-06-22T11:35:52;12.27;;;6.40;;
77573;SDS011;66710;48.868;9.080;2023-06-22T11:38:17;9.55;;;6.00;;
77573;SDS011;66710;48.868;9.080;2023-06-22T11:40:42;11.13;;;5.70;;
77573;SDS011;66710;48.868;9.080;2023-06-22T11:43:08;12.02;;;5.85;;
77573;SDS011;66710;48.868;9.080;2023-06-22T11:45:33;8.68;;;5.47;;
77573;SDS011;66710;48.868;9.080;2023-06-22T11:47:58;8.85;;;5.60;;
77573;SDS011;66710;48.868;9.080;2023-06-22T11:50:24;11.88;;;5.80;;
77573;SDS011;66710;48.868;9.080;2023-06-22T11:52:49;11.95;;;5.63;;
77573;SDS011;66710;48.868;9.080;2023-06-22T11:55:14;12.10;;;6.30;;
77573;SDS011;66710;48.868;9.080;2023-06-22T11:57:52;11.68;;;5.72;;
77573;SDS011;66710;48.868;9.080;2023-06-22T12:00:19;11.00;;;5.75;;
77573;SDS011;66710;48.868;9.080;2023-06-22T12:02:45;9.95;;;5.78;;
77573;SDS011;66710;48.868;9.080;2023-06-22T12:05:10;10.80;;;5.75;;
77573;SDS011;66710;48.868;9.080;2023-06-22T12:07:36;9.68;;;5.63;;
77573;SDS011;66710;48.868;9.080;2023-06-22T12:10:02;11.23;;;6.10;;
77573;SDS011;66710;48.868;9.080;2023-06-22T12:12:28;8.60;;;5.43;;
77573;SDS011;66710;48.868;9.080;2023-06-22T12:14:53;9.35;;;5.40;;
77573;SDS011;66710;48.868;9.080;2023-06-22T12:17:18;9.65;;;5.60;;
77573;SDS011;66710;48.868;9.080;2023-06-22T12:19:43;10.98;;;6.18;;
77573;SDS011;66710;48.868;9.080;2023-06-22T12:22:09;14.65;;;7.50;;
77573;SDS011;66710;48.868;9.080;2023-06-22T12:24:34;20.45;;;10.57;;
77573;SDS011;66710;48.868;9.080;2023-06-22T12:26:59;10.73;;;5.85;;
77573;SDS011;66710;48.868;9.080;2023-06-22T12:29:24;10.35;;;5.70;;
77573;SDS011;66710;48.868;9.080;2023-06-22T12:31:50;9.85;;;5.65;;
77573;SDS011;66710;48.868;9.080;2023-06-22T12:34:15;14.02;;;5.75;;
77573;SDS011;66710;48.868;9.080;2023-06-22T12:36:41;10.40;;;6.40;;
77573;SDS011;66710;48.868;9.080;2023-06-22T12:39:07;11.98;;;5.82;;
77573;SDS011;66710;48.868;9.080;2023-06-22T12:41:32;11.57;;;5.95;;
77573;SDS011;66710;48.868;9.080;2023-06-22T12:43:57;8.93;;;5.47;;
77573;SDS011;66710;48.868;9.080;2023-06-22T12:46:23;11.00;;;5.30;;
77573;SDS011;66710;48.868;9.080;2023-06-22T12:48:48;11.65;;;5.78;;
77573;SDS011;66710;48.868;9.080;2023-06-22T12:51:19;11.35;;;6.22;;
77573;SDS011;66710;48.868;9.080;2023-06-22T12:53:46;9.98;;;5.60;;
77573;SDS011;66710;48.868;9.080;2023-06-22T12:56:11;10.40;;;5.55;;
77573;SDS011;66710;48.868;9.080;2023-06-22T12:58:36;9.63;;;6.25;;
77573;SDS011;66710;48.868;9.080;2023-06-22T13:01:02;10.35;;;5.72;;
77573;SDS011;66710;48.868;9.080;2023-06-22T13:03:27;10.93;;;5.82;;
77573;SDS011;66710;48.868;9.080;2023-06-22T13:05:53;12.80;;;5.93;;
77573;SDS011;66710;48.868;9.080;2023-06-22T13:08:19;8.23;;;5.60;;
77573;SDS011;66710;48.868;9.080;2023-06-22T13:10:44;13.55;;;5.82;;
77573;SDS011;66710;48.868;9.080;2023-06-22T13:13:09;12.05;;;6.32;;
77573;SDS011;66710;48.868;9.080;2023-06-22T13:15:35;13.32;;;5.97;;
77573;SDS011;66710;48.868;9.080;2023-06-22T13:18:00;11.30;;;5.90;;
77573;SDS011;66710;48.868;9.080;2023-06-22T13:20:25;11.65;;;6.03;;
77573;SDS011;66710;48.868;9.080;2023-06-22T13:22:51;11.55;;;6.20;;
77573;SDS011;66710;48.868;9.080;2023-06-22T13:25:16;10.20;;;6.03;;
77573;SDS011;66710;48.868;9.080;2023-06-22T13:27:44;11.07;;;6.10;;
77573;SDS011;66710;48.868;9.080;2023-06-22T13:30:10;11.13;;;6.60;;
77573;SDS011;66710;48.868;9.080;2023-06-22T13:32:36;14.25;;;6.40;;
77573;SDS011;66710;48.868;9.080;2023-06-22T13:35:01;11.40;;;6.32;;
77573;SDS011;66710;48.868;9.080;2023-06-22T13:37:26;11.98;;;6.63;;
77573;SDS011;66710;48.868;9.080;2023-06-22T13:39:52;11.02;;;5.85;;
77573;SDS011;66710;48.868;9.080;2023-06-22T13:42:17;11.80;;;6.10;;
77573;SDS011;66710;48.868;9.080;2023-06-22T13:44:43;13.48;;;6.38;;
77573;SDS011;66710;48.868;9.080;2023-06-22T13:47:08;12.43;;;6.22;;
77573;SDS011;66710;48.868;9.080;2023-06-22T13:49:34;14.07;;;6.00;;
77573;SDS011;66710;48.868;9.080;2023-06-22T13:52:00;12.02;;;6.65;;
77573;SDS011;66710;48.868;9.080;2023-06-22T13:54:25;13.88;;;6.82;;
77573;SDS011;66710;48.868;9.080;2023-06-22T13:56:50;15.45;;;6.30;;
77573;SDS011;66710;48.868;9.080;2023-06-22T13:59:16;12.15;;;6.90;;
77573;SDS011;66710;48.868;9.080;2023-06-22T14:01:41;11.50;;;6.50;;
77573;SDS011;66710;48.868;9.080;2023-06-22T14:04:08;9.88;;;6.38;;
77573;SDS011;66710;48.868;9.080;2023-06-22T14:06:33;10.90;;;6.35;;
77573;SDS011;66710;48.868;9.080;2023-06-22T14:08:58;10.55;;;6.35;;
77573;SDS011;66710;48.868;9.080;2023-06-22T14:11:24;12.98;;;5.82;;
77573;SDS011;66710;48.868;9.080;2023-06-22T14:13:49;13.30;;;6.28;;
77573;SDS011;66710;48.868;9.080;2023-06-22T14:16:15;10.63;;;5.90;;
77573;SDS011;66710;48.868;9.080;2023-06-22T14:18:40;11.50;;;6.38;;
77573;SDS011;66710;48.868;9.080;2023-06-22T14:21:05;13.60;;;6.68;;
77573;SDS011;66710;48.868;9.080;2023-06-22T14:23:30;11.68;;;6.20;;
77573;SDS011;66710;48.868;9.080;2023-06-22T14:25:56;12.90;;;6.88;;
77573;SDS011;66710;48.868;9.080;2023-06-22T14:28:21;11.55;;;6.57;;
77573;SDS011;66710;48.868;9.080;2023-06-22T14:30:47;13.75;;;6.28;;
77573;SDS011;66710;48.868;9.080;2023-06-22T14:33:12;8.63;;;5.75;;
77573;SDS011;66710;48.868;9.080;2023-06-22T14:35:37;10.68;;;5.95;;
77573;SDS011;66710;48.868;9.080;2023-06-22T14:38:03;10.43;;;5.45;;